createdAt,value
2022-07-30T00:01:21.270Z,101473.56
2022-07-30T00:03:48.190Z,101475.81
2022-07-30T00:06:14.987Z,101474.38
2022-07-30T00:08:41.727Z,101476.34
2022-07-30T00:11:09.449Z,101470.88
2022-07-30T00:13:36.225Z,101476.91
2022-07-30T00:16:03.310Z,101473.56
2022-07-30T00:18:30.066Z,101479.44
2022-07-30T00:20:57.235Z,101477.97
2022-07-30T00:23:24.129Z,101480.25
2022-07-30T00:25:50.887Z,101480.75
2022-07-30T00:28:17.647Z,101475.44
2022-07-30T00:30:44.459Z,101483.00
2022-07-30T00:33:11.319Z,101479.56
2022-07-30T00:35:39.720Z,101479.56
2022-07-30T00:38:06.585Z,101472.38
2022-07-30T00:40:33.405Z,101477.84
2022-07-30T00:43:00.260Z,101478.09
2022-07-30T00:45:27.762Z,101474.75
2022-07-30T00:47:54.657Z,101466.97
2022-07-30T00:50:21.876Z,101468.19
2022-07-30T00:52:49.157Z,101462.75
2022-07-30T00:55:16.250Z,101465.63
2022-07-30T00:57:44.441Z,101456.69
2022-07-30T01:00:16.227Z,101463.28
2022-07-30T01:02:53.571Z,101453.63
2022-07-30T01:05:20.588Z,101464.44
2022-07-30T01:07:47.602Z,101461.81
2022-07-30T01:10:16.321Z,101457.22
2022-07-30T01:12:45.621Z,101461.81
2022-07-30T01:15:12.852Z,101468.25
2022-07-30T01:17:40.669Z,101471.41
2022-07-30T01:20:16.170Z,101472.00
2022-07-30T01:22:59.804Z,101464.13
2022-07-30T01:25:51.434Z,101457.44
2022-07-30T01:28:25.936Z,101456.97
2022-07-30T01:30:54.570Z,101453.75
2022-07-30T01:33:24.090Z,101458.59
2022-07-30T01:35:53.494Z,101459.22
2022-07-30T01:38:23.678Z,101455.50
2022-07-30T01:40:55.959Z,101457.75
2022-07-30T01:43:25.849Z,101459.97
2022-07-30T01:45:55.320Z,101463.97
2022-07-30T01:48:25.423Z,101464.47
2022-07-30T01:50:58.274Z,101466.72
2022-07-30T01:53:29.912Z,101456.47
2022-07-30T01:56:00.231Z,101456.81
2022-07-30T01:58:31.719Z,101458.56
2022-07-30T02:01:07.306Z,101457.69
2022-07-30T02:03:35.599Z,101458.81
2022-07-30T02:06:13.500Z,101464.50
2022-07-30T02:08:52.447Z,101466.38
2022-07-30T02:11:38.998Z,101465.63
2022-07-30T02:14:21.842Z,101469.59
2022-07-30T02:16:59.178Z,101475.41
2022-07-30T02:19:41.614Z,101471.19
2022-07-30T02:22:15.926Z,101475.16
2022-07-30T02:24:44.396Z,101472.78
2022-07-30T02:27:26.520Z,101471.94
2022-07-30T02:29:57.803Z,101479.34
2022-07-30T02:32:30.625Z,101472.41
2022-07-30T02:35:05.273Z,101468.94
2022-07-30T02:37:42.961Z,101475.50
2022-07-30T02:40:19.467Z,101474.66
2022-07-30T02:42:51.422Z,101478.25
2022-07-30T02:45:24.695Z,101472.16
2022-07-30T02:47:57.605Z,101473.16
2022-07-30T02:50:26.231Z,101470.69
2022-07-30T02:52:56.492Z,101468.44
2022-07-30T02:55:27.014Z,101475.88
2022-07-30T02:57:56.448Z,101474.50
2022-07-30T03:00:25.817Z,101478.34
2022-07-30T03:02:56.975Z,101477.44
2022-07-30T03:05:25.794Z,101477.44
2022-07-30T03:07:57.996Z,101479.69
2022-07-30T03:10:27.701Z,101479.94
2022-07-30T03:12:56.969Z,101486.50
2022-07-30T03:15:24.413Z,101483.00
2022-07-30T03:17:55.572Z,101485.88
2022-07-30T03:20:29.592Z,101483.25
2022-07-30T03:22:59.948Z,101485.97
2022-07-30T03:25:31.960Z,101487.69
2022-07-30T03:28:04.032Z,101486.09
2022-07-30T03:30:34.525Z,101487.97
2022-07-30T03:33:02.534Z,101497.59
2022-07-30T03:35:31.516Z,101486.94
2022-07-30T03:38:01.787Z,101489.88
2022-07-30T03:40:30.275Z,101484.94
2022-07-30T03:42:57.869Z,101487.88
2022-07-30T03:45:26.469Z,101486.91
2022-07-30T03:47:59.290Z,101489.09
2022-07-30T03:50:27.915Z,101491.09
2022-07-30T03:52:55.599Z,101491.31
2022-07-30T03:55:23.355Z,101491.56
2022-07-30T03:57:51.122Z,101487.22
2022-07-30T04:00:22.637Z,101491.78
2022-07-30T04:02:53.336Z,101487.47
2022-07-30T04:05:41.234Z,101487.69
2022-07-30T04:08:09.543Z,101491.28
2022-07-30T04:10:38.126Z,101500.53
2022-07-30T04:13:09.155Z,101495.97
2022-07-30T04:16:35.031Z,101496.06
2022-07-30T04:18:47.588Z,101505.88
2022-07-30T04:21:18.038Z,101508.59
2022-07-30T04:24:02.315Z,101516.59
2022-07-30T04:26:35.630Z,101517.50
2022-07-30T04:29:07.547Z,101517.59
2022-07-30T04:31:40.046Z,101521.19
2022-07-30T04:34:34.711Z,101520.50
2022-07-30T04:37:04.425Z,101525.03
2022-07-30T04:39:31.579Z,101526.34
2022-07-30T04:41:58.417Z,101521.28
2022-07-30T04:44:34.402Z,101521.69
2022-07-30T04:47:27.237Z,101529.84
2022-07-30T04:50:14.168Z,101533.59
2022-07-30T04:52:44.209Z,101534.91
2022-07-30T04:55:15.105Z,101541.56
2022-07-30T04:57:47.156Z,101545.84
2022-07-30T05:00:16.545Z,101543.38
2022-07-30T05:02:46.447Z,101545.69
2022-07-30T05:05:16.369Z,101544.19
2022-07-30T05:07:46.541Z,101554.81
2022-07-30T05:10:14.379Z,101555.19
2022-07-30T05:12:42.287Z,101554.69
2022-07-30T05:15:11.204Z,101563.22
2022-07-30T05:17:39.185Z,101572.13
2022-07-30T05:20:09.712Z,101558.25
2022-07-30T05:23:09.434Z,101560.00
2022-07-30T05:25:40.609Z,101564.44
2022-07-30T05:28:27.379Z,101565.22
2022-07-30T05:30:56.416Z,101574.88
2022-07-30T05:33:41.368Z,101573.63
2022-07-30T05:36:14.196Z,101567.69
2022-07-30T05:38:43.868Z,101568.19
2022-07-30T05:41:31.848Z,101561.50
2022-07-30T05:44:23.881Z,101564.63
2022-07-30T05:46:52.113Z,101562.66
2022-07-30T05:49:19.956Z,101571.47
2022-07-30T05:51:47.004Z,101577.41
2022-07-30T05:54:13.943Z,101574.47
2022-07-30T05:57:06.922Z,101571.22
2022-07-30T05:59:38.772Z,101573.44
2022-07-30T06:02:08.495Z,101578.16
2022-07-30T06:04:50.129Z,101579.41
2022-07-30T06:07:17.739Z,101576.94
2022-07-30T06:09:44.683Z,101578.91
2022-07-30T06:12:11.773Z,101577.91
2022-07-30T06:14:40.556Z,101585.31
2022-07-30T06:17:10.311Z,101581.81
2022-07-30T06:19:55.620Z,101590.94
2022-07-30T06:22:26.250Z,101591.19
2022-07-30T06:24:54.734Z,101592.69
2022-07-30T06:27:30.923Z,101593.91
2022-07-30T06:29:58.456Z,101597.78
2022-07-30T06:32:26.394Z,101596.34
2022-07-30T06:35:02.454Z,101604.75
2022-07-30T06:38:01.786Z,101600.88
2022-07-30T06:40:18.895Z,101612.41
2022-07-30T06:43:04.233Z,101606.44
2022-07-30T06:45:50.128Z,101613.66
2022-07-30T06:48:23.545Z,101614.00
2022-07-30T06:50:51.790Z,101609.47
2022-07-30T06:53:19.505Z,101609.59
2022-07-30T06:56:21.444Z,101608.53
2022-07-30T06:58:55.613Z,101607.72
2022-07-30T07:01:49.484Z,101602.88
2022-07-30T07:04:16.276Z,101607.53
2022-07-30T07:06:43.178Z,101605.69
2022-07-30T07:09:13.294Z,101598.53
2022-07-30T07:11:50.105Z,101609.06
2022-07-30T07:14:18.857Z,101607.06
2022-07-30T07:16:48.869Z,101607.63
2022-07-30T07:19:59.782Z,101610.88
2022-07-30T07:22:30.833Z,101619.09
2022-07-30T07:24:57.655Z,101612.47
2022-07-30T07:27:28.301Z,101615.66
2022-07-30T07:30:01.294Z,101618.97
2022-07-30T07:32:34.277Z,101614.56
2022-07-30T07:35:02.604Z,101614.66
2022-07-30T07:37:30.358Z,101614.56
2022-07-30T07:39:57.490Z,101617.56
2022-07-30T07:42:24.453Z,101619.06
2022-07-30T07:44:52.884Z,101610.34
2022-07-30T07:47:19.858Z,101617.16
2022-07-30T07:50:02.718Z,101619.34
2022-07-30T07:52:30.255Z,101628.13
2022-07-30T07:54:56.984Z,101621.84
2022-07-30T07:57:24.510Z,101622.81
2022-07-30T07:59:54.330Z,101622.22
2022-07-30T08:02:26.690Z,101622.84
2022-07-30T08:05:06.045Z,101609.84
2022-07-30T08:07:43.692Z,101615.69
2022-07-30T08:10:29.081Z,101615.06
2022-07-30T08:13:48.987Z,101607.91
2022-07-30T08:16:37.865Z,101609.78
2022-07-30T08:19:20.757Z,101613.41
2022-07-30T08:21:59.696Z,101610.16
2022-07-30T08:24:30.355Z,101606.28
2022-07-30T08:26:57.397Z,101620.88
2022-07-30T08:29:24.368Z,101617.31
2022-07-30T08:31:51.331Z,101622.78
2022-07-30T08:34:25.652Z,101613.19
2022-07-30T08:36:54.295Z,101609.84
2022-07-30T08:39:21.417Z,101614.00
2022-07-30T08:41:49.081Z,101616.03
2022-07-30T08:44:19.381Z,101612.06
2022-07-30T08:46:56.145Z,101624.09
2022-07-30T08:49:34.600Z,101614.50
2022-07-30T08:52:02.917Z,101619.16
2022-07-30T08:54:43.458Z,101616.53
2022-07-30T08:57:12.923Z,101620.59
2022-07-30T08:59:59.486Z,101621.03
2022-07-30T09:02:32.138Z,101627.16
2022-07-30T09:05:06.361Z,101621.63
2022-07-30T09:07:34.782Z,101626.44
2022-07-30T09:10:08.307Z,101622.16
2022-07-30T09:12:42.640Z,101630.09
2022-07-30T09:15:15.381Z,101626.47
2022-07-30T09:17:51.396Z,101620.91
2022-07-30T09:20:26.249Z,101624.69
2022-07-30T09:23:00.570Z,101629.34
2022-07-30T09:25:49.341Z,101624.38
2022-07-30T09:28:35.010Z,101628.19
2022-07-30T09:31:14.330Z,101632.66
2022-07-30T09:33:59.634Z,101632.34
2022-07-30T09:36:44.831Z,101631.97
2022-07-30T09:39:58.891Z,101635.09
2022-07-30T09:42:45.297Z,101632.31
2022-07-30T09:45:15.672Z,101625.75
2022-07-30T09:47:48.451Z,101629.53
2022-07-30T09:53:09.866Z,101626.78
2022-07-30T09:55:42.826Z,101631.22
2022-07-30T09:58:12.909Z,101630.59
2022-07-30T10:00:47.027Z,101628.88
2022-07-30T10:03:43.138Z,101624.38
2022-07-30T10:06:38.203Z,101628.53
2022-07-30T10:09:37.245Z,101623.63
2022-07-30T10:12:10.650Z,101612.47
2022-07-30T10:14:46.511Z,101610.31
2022-07-30T10:17:17.325Z,101604.34
2022-07-30T10:20:08.757Z,101608.34
2022-07-30T10:22:55.086Z,101603.94
2022-07-30T10:25:49.546Z,101598.78
2022-07-30T10:28:40.598Z,101602.50
2022-07-30T10:31:08.360Z,101610.19
2022-07-30T10:33:55.371Z,101607.28
2022-07-30T10:36:24.520Z,101599.84
2022-07-30T10:38:54.175Z,101607.72
2022-07-30T10:41:47.459Z,101602.69
2022-07-30T10:44:50.580Z,101603.56
2022-07-30T10:47:19.313Z,101609.69
2022-07-30T10:50:16.095Z,101604.78
2022-07-30T10:52:58.464Z,101605.59
2022-07-30T10:55:38.488Z,101601.34
2022-07-30T10:58:15.865Z,101604.41
2022-07-30T11:00:52.658Z,101608.00
2022-07-30T11:03:23.438Z,101602.81
2022-07-30T11:06:15.982Z,101604.16
2022-07-30T11:08:45.385Z,101597.25
2022-07-30T11:11:20.813Z,101610.59
2022-07-30T11:14:07.726Z,101609.72
2022-07-30T11:16:34.859Z,101601.03
2022-07-30T11:19:55.190Z,101593.69
2022-07-30T11:22:28.160Z,101594.47
2022-07-30T11:24:55.565Z,101600.72
2022-07-30T11:27:48.640Z,101602.31
2022-07-30T11:30:18.828Z,101602.81
2022-07-30T11:32:51.531Z,101596.28
2022-07-30T11:35:34.653Z,101594.50
2022-07-30T11:38:19.025Z,101601.59
2022-07-30T11:40:48.765Z,101600.81
2022-07-30T11:43:36.205Z,101597.50
2022-07-30T11:46:29.634Z,101597.94
2022-07-30T11:49:05.019Z,101596.09
2022-07-30T11:51:46.777Z,101581.00
2022-07-30T11:54:14.202Z,101590.81
2022-07-30T11:56:55.605Z,101586.81
2022-07-30T11:59:22.718Z,101583.31
2022-07-30T12:02:01.531Z,101589.06
2022-07-30T12:04:28.715Z,101595.56
2022-07-30T12:06:55.461Z,101596.03
2022-07-30T12:09:29.873Z,101596.28
2022-07-30T12:11:57.592Z,101594.16
2022-07-30T12:14:25.246Z,101598.53
2022-07-30T12:16:54.254Z,101592.22
2022-07-30T12:19:21.673Z,101592.31
2022-07-30T12:21:53.065Z,101595.31
2022-07-30T12:24:26.770Z,101588.28
2022-07-30T12:27:07.932Z,101591.03
2022-07-30T12:29:35.850Z,101587.03
2022-07-30T12:32:03.128Z,101590.72
2022-07-30T12:34:29.925Z,101591.81
2022-07-30T12:37:08.691Z,101587.06
2022-07-30T12:39:35.784Z,101591.09
2022-07-30T12:42:03.451Z,101589.97
2022-07-30T12:44:42.150Z,101598.50
2022-07-30T12:47:38.643Z,101589.47
2022-07-30T12:50:16.872Z,101591.84
2022-07-30T12:52:51.366Z,101587.56
2022-07-30T12:55:27.894Z,101593.75
2022-07-30T12:58:08.701Z,101587.75
2022-07-30T13:00:54.873Z,101591.09
2022-07-30T13:03:24.940Z,101603.00
2022-07-30T13:05:55.602Z,101596.09
2022-07-30T13:08:51.306Z,101595.78
2022-07-30T13:11:21.141Z,101584.72
2022-07-30T13:13:49.145Z,101594.44
2022-07-30T13:16:16.727Z,101584.94
2022-07-30T13:18:43.601Z,101582.81
2022-07-30T13:21:11.322Z,101578.00
2022-07-30T13:23:41.515Z,101580.03
2022-07-30T13:26:09.934Z,101580.50
2022-07-30T13:28:36.864Z,101583.72
2022-07-30T13:31:04.253Z,101582.31
2022-07-30T13:33:31.562Z,101578.25
2022-07-30T13:35:59.136Z,101576.34
2022-07-30T13:38:26.567Z,101576.75
2022-07-30T13:40:56.047Z,101569.88
2022-07-30T13:43:24.701Z,101569.91
2022-07-30T13:45:53.086Z,101570.81
2022-07-30T13:48:20.495Z,101572.94
2022-07-30T13:50:47.278Z,101569.19
2022-07-30T13:53:14.239Z,101561.19
2022-07-30T13:55:42.492Z,101559.81
2022-07-30T13:58:09.995Z,101557.13
2022-07-30T14:00:37.374Z,101566.88
2022-07-30T14:03:07.933Z,101568.25
2022-07-30T14:05:42.023Z,101567.75
2022-07-30T14:08:12.097Z,101556.84
2022-07-30T14:10:40.508Z,101563.81
2022-07-30T14:13:10.367Z,101562.84
2022-07-30T14:15:41.177Z,101552.75
2022-07-30T14:18:07.981Z,101560.19
2022-07-30T14:20:35.128Z,101555.22
2022-07-30T14:23:05.942Z,101554.97
2022-07-30T14:25:32.861Z,101556.47
2022-07-30T14:27:59.645Z,101545.72
2022-07-30T14:30:26.746Z,101545.03
2022-07-30T14:32:59.202Z,101540.31
2022-07-30T14:35:28.593Z,101540.75
2022-07-30T14:37:55.379Z,101540.41
2022-07-30T14:40:22.185Z,101536.97
2022-07-30T14:42:48.917Z,101537.13
2022-07-30T14:45:15.822Z,101545.22
2022-07-30T14:47:43.062Z,101551.13
2022-07-30T14:50:09.974Z,101547.19
2022-07-30T14:52:38.740Z,101551.56
2022-07-30T14:55:10.065Z,101533.78
2022-07-30T14:57:37.573Z,101535.97
2022-07-30T15:00:11.882Z,101528.28
2022-07-30T15:02:40.771Z,101527.47
2022-07-30T15:05:09.128Z,101524.53
2022-07-30T15:07:35.969Z,101517.25
2022-07-30T15:10:04.458Z,101522.84
2022-07-30T15:12:31.213Z,101520.91
2022-07-30T15:14:57.979Z,101520.72
2022-07-30T15:17:25.145Z,101514.47
2022-07-30T15:19:52.251Z,101523.22
2022-07-30T15:22:20.308Z,101520.88
2022-07-30T15:24:47.285Z,101526.69
2022-07-30T15:27:14.461Z,101525.41
2022-07-30T15:29:41.237Z,101527.56
2022-07-30T15:32:08.010Z,101533.59
2022-07-30T15:34:34.983Z,101523.50
2022-07-30T15:37:05.594Z,101526.09
2022-07-30T15:39:33.760Z,101522.84
2022-07-30T15:42:02.612Z,101527.16
2022-07-30T15:44:30.208Z,101528.47
2022-07-30T15:46:57.436Z,101525.84
2022-07-30T15:49:24.517Z,101527.16
2022-07-30T15:51:51.884Z,101531.41
2022-07-30T15:54:23.206Z,101533.13
2022-07-30T15:56:53.960Z,101530.13
2022-07-30T15:59:22.049Z,101529.25
2022-07-30T16:01:49.228Z,101533.78
2022-07-30T16:04:19.522Z,101528.63
2022-07-30T16:06:48.565Z,101527.59
2022-07-30T16:09:16.627Z,101530.97
2022-07-30T16:11:43.666Z,101523.25
2022-07-30T16:14:11.068Z,101525.16
2022-07-30T16:16:38.196Z,101511.69
2022-07-30T16:19:05.038Z,101516.81
2022-07-30T16:21:31.817Z,101527.47
2022-07-30T16:23:59.105Z,101512.00
2022-07-30T16:26:26.290Z,101514.56
2022-07-30T16:28:53.468Z,101511.56
2022-07-30T16:31:20.302Z,101505.97
2022-07-30T16:33:47.350Z,101506.78
2022-07-30T16:36:14.667Z,101505.41
2022-07-30T16:38:41.578Z,101512.56
2022-07-30T16:41:13.353Z,101506.28
2022-07-30T16:43:41.024Z,101507.31
2022-07-30T16:46:07.851Z,101502.78
2022-07-30T16:48:34.759Z,101508.09
2022-07-30T16:51:01.736Z,101513.97
2022-07-30T16:53:28.666Z,101509.84
2022-07-30T16:55:56.971Z,101510.59
2022-07-30T16:58:30.726Z,101506.72
2022-07-30T17:00:58.581Z,101510.69
2022-07-30T17:03:25.770Z,101504.69
2022-07-30T17:05:53.785Z,101507.19
2022-07-30T17:08:24.853Z,101502.06
2022-07-30T17:10:53.451Z,101507.19
2022-07-30T17:13:21.324Z,101505.50
2022-07-30T17:15:48.643Z,101503.94
2022-07-30T17:18:16.159Z,101501.47
2022-07-30T17:20:43.726Z,101506.09
2022-07-30T17:23:10.747Z,101506.31
2022-07-30T17:25:37.543Z,101505.38
2022-07-30T17:28:04.853Z,101505.56
2022-07-30T17:30:31.734Z,101504.69
2022-07-30T17:32:58.832Z,101503.75
2022-07-30T17:35:26.277Z,101509.22
2022-07-30T17:37:53.292Z,101495.97
2022-07-30T17:40:29.820Z,101501.22
2022-07-30T17:43:07.834Z,101503.91
2022-07-30T17:45:36.548Z,101499.72
2022-07-30T17:48:05.282Z,101499.06
2022-07-30T17:50:33.827Z,101496.00
2022-07-30T17:53:03.920Z,101502.34
2022-07-30T17:55:34.944Z,101502.22
2022-07-30T17:58:04.245Z,101504.19
2022-07-30T18:00:31.354Z,101508.34
2022-07-30T18:02:58.119Z,101506.97
2022-07-30T18:05:25.048Z,101508.91
2022-07-30T18:07:51.980Z,101503.56
2022-07-30T18:10:18.759Z,101506.91
2022-07-30T18:12:48.826Z,101509.38
2022-07-30T18:15:18.097Z,101504.63
2022-07-30T18:17:45.250Z,101500.19
2022-07-30T18:20:12.293Z,101505.63
2022-07-30T18:22:40.408Z,101503.41
2022-07-30T18:25:08.222Z,101500.38
2022-07-30T18:27:47.427Z,101502.44
2022-07-30T18:30:15.106Z,101506.66
2022-07-30T18:32:42.020Z,101502.22
2022-07-30T18:35:14.082Z,101508.50
2022-07-30T18:37:43.494Z,101502.34
2022-07-30T18:40:13.244Z,101492.13
2022-07-30T18:42:40.270Z,101491.69
2022-07-30T18:45:07.785Z,101499.66
2022-07-30T18:47:34.700Z,101500.03
2022-07-30T18:50:01.988Z,101494.00
2022-07-30T18:52:28.802Z,101494.41
2022-07-30T18:54:55.696Z,101491.66
2022-07-30T18:57:22.427Z,101493.25
2022-07-30T18:59:49.778Z,101489.66
2022-07-30T19:02:16.575Z,101488.31
2022-07-30T19:04:43.436Z,101492.50
2022-07-30T19:07:10.272Z,101494.56
2022-07-30T19:09:37.384Z,101496.66
2022-07-30T19:12:05.634Z,101499.41
2022-07-30T19:14:32.656Z,101498.75
2022-07-30T19:17:00.031Z,101502.19
2022-07-30T19:19:27.272Z,101497.84
2022-07-30T19:21:54.364Z,101503.94
2022-07-30T19:24:21.466Z,101501.88
2022-07-30T19:26:49.114Z,101503.28
2022-07-30T19:29:16.357Z,101499.16
2022-07-30T19:31:43.126Z,101501.25
2022-07-30T19:34:11.112Z,101502.44
2022-07-30T19:36:38.492Z,101503.69
2022-07-30T19:39:07.389Z,101495.06
2022-07-30T19:41:40.527Z,101507.16
2022-07-30T19:44:12.090Z,101506.47
2022-07-30T19:46:41.306Z,101506.84
2022-07-30T19:49:09.759Z,101518.22
2022-07-30T19:52:10.280Z,101516.81
2022-07-30T19:54:24.881Z,101515.09
2022-07-30T19:56:52.322Z,101521.66
2022-07-30T19:59:19.301Z,101520.97
2022-07-30T20:02:06.403Z,101520.47
2022-07-30T20:04:35.343Z,101528.22
2022-07-30T20:07:02.135Z,101521.16
2022-07-30T20:09:31.110Z,101518.78
2022-07-30T20:12:00.013Z,101511.69
2022-07-30T20:14:30.182Z,101509.66
2022-07-30T20:16:58.207Z,101508.28
2022-07-30T20:19:29.165Z,101511.38
2022-07-30T20:22:03.154Z,101510.03
2022-07-30T20:24:30.019Z,101506.59
2022-07-30T20:26:58.033Z,101514.13
2022-07-30T20:29:24.985Z,101512.44
2022-07-30T20:31:51.862Z,101517.09
2022-07-30T20:34:20.753Z,101509.00
2022-07-30T20:36:52.196Z,101501.59
2022-07-30T20:39:21.066Z,101493.66
2022-07-30T20:41:48.040Z,101502.13
2022-07-30T20:44:23.076Z,101496.59
2022-07-30T20:46:52.675Z,101505.91
2022-07-30T20:49:24.289Z,101501.41
2022-07-30T20:52:01.315Z,101504.53
2022-07-30T20:54:30.177Z,101511.06
2022-07-30T20:56:57.962Z,101500.22
2022-07-30T20:59:26.859Z,101508.31
2022-07-30T21:01:59.854Z,101503.13
2022-07-30T21:04:26.750Z,101508.66
2022-07-30T21:06:53.861Z,101499.69
2022-07-30T21:09:20.898Z,101504.34
2022-07-30T21:11:50.465Z,101498.00
2022-07-30T21:14:20.090Z,101498.16
2022-07-30T21:16:47.494Z,101497.47
2022-07-30T21:19:18.501Z,101499.72
2022-07-30T21:21:48.743Z,101489.72
2022-07-30T21:24:19.291Z,101491.78
2022-07-30T21:26:49.361Z,101479.38
2022-07-30T21:29:17.635Z,101486.25
2022-07-30T21:32:01.307Z,101487.63
2022-07-30T21:34:33.650Z,101484.88
2022-07-30T21:37:02.842Z,101481.78
2022-07-30T21:39:29.974Z,101482.47
2022-07-30T21:41:57.742Z,101479.38
2022-07-30T21:44:24.753Z,101491.06
2022-07-30T21:46:52.203Z,101480.72
2022-07-30T21:49:18.974Z,101475.91
2022-07-30T21:51:46.023Z,101478.28
2022-07-30T21:54:13.895Z,101470.38
2022-07-30T21:56:43.973Z,101472.59
2022-07-30T21:59:10.834Z,101469.34
2022-07-30T22:01:38.742Z,101474.13
2022-07-30T22:04:09.242Z,101475.34
2022-07-30T22:06:39.105Z,101473.97
2022-07-30T22:09:19.323Z,101480.31
2022-07-30T22:11:56.891Z,101469.97
2022-07-30T22:14:28.910Z,101481.28
2022-07-30T22:16:56.282Z,101481.63
2022-07-30T22:19:23.764Z,101478.53
2022-07-30T22:21:53.215Z,101477.13
2022-07-30T22:24:29.873Z,101479.19
2022-07-30T22:27:01.703Z,101471.44
2022-07-30T22:29:41.575Z,101476.41
2022-07-30T22:32:09.728Z,101474.00
2022-07-30T22:34:37.848Z,101466.41
2022-07-30T22:37:04.747Z,101470.50
2022-07-30T22:39:50.738Z,101465.34
2022-07-30T22:42:24.391Z,101460.16
2022-07-30T22:44:53.241Z,101463.25
2022-07-30T22:47:54.058Z,101464.59
2022-07-30T22:50:09.339Z,101459.78
2022-07-30T22:52:39.212Z,101465.06
2022-07-30T22:55:09.025Z,101470.00
2022-07-30T22:57:37.955Z,101466.03
2022-07-30T23:00:12.347Z,101464.63
2022-07-30T23:02:42.428Z,101460.63
2022-07-30T23:05:10.885Z,101455.44
2022-07-30T23:07:40.421Z,101453.22
2022-07-30T23:10:18.042Z,101467.09
2022-07-30T23:12:51.234Z,101462.94
2022-07-30T23:15:20.049Z,101466.88
2022-07-30T23:17:47.735Z,101460.84
2022-07-30T23:20:22.820Z,101453.94
2022-07-30T23:22:50.091Z,101447.75
2022-07-30T23:25:17.495Z,101452.88
2022-07-30T23:27:46.591Z,101459.56
2022-07-30T23:30:14.236Z,101451.78
2022-07-30T23:32:41.446Z,101453.81
2022-07-30T23:35:10.021Z,101446.94
2022-07-30T23:37:49.160Z,101448.09
2022-07-30T23:40:18.460Z,101446.56
2022-07-30T23:42:45.523Z,101443.09
2022-07-30T23:45:12.446Z,101444.13
2022-07-30T23:48:00.693Z,101441.38
2022-07-30T23:50:26.650Z,101436.56
2022-07-30T23:52:53.397Z,101432.47
2022-07-30T23:55:21.197Z,101439.00
2022-07-30T23:57:50.881Z,101444.19
